Airfield :
LOGIN :

Register | Disclaimer

   EN    FR    IT 

 










Legend :    VFR   Marginal VFR   IFR   Intensive IFR   Very Intensive IFR
Visi :
Ceiling :
>= 8 km
>= 3000ft
5 to 8 km
1000 to 3000 ft
1500m to 5 km
500 to 1000 ft
800 to 1500m
200 to 500 ft
< 800m
< 200 ft
Symbols :   Thunderstorms  Fog  Heavy snow  Heavy precipitations  Wind > 20 kt
SIGMETs :     Misc.  Thunderstorms  Icing  Turbulence  Mountain Waves  Volcanic Ashes







- Airport Elevation : 239 ft
- IATA code : VRN


LIPX - Villafranca Int. Verona

CURRENT METAR :
  • 231450Z 22005KT CAVOK 19/02 Q1013

EXPIRED METARs :
  • 231420Z 21005KT CAVOK 20/02 Q1013
  • 231350Z 22006KT 200V270 CAVOK 20/02 Q1013
  • 231320Z 26006KT 230V300 CAVOK 20/00 Q1012
  • 231250Z 26007KT CAVOK 20/01 Q1012
  • 231220Z 26009KT CAVOK 19/00 Q1013

TAF TAF LIPX
Valid from the 23 at 15:00 until the 24 at 00:00 UTC


231400Z 2315/2324 22007KT CAVOK
No reported NOTAMs for that airfield.
2 SIGMETs reported for the Milano FIR (LIMM) :
 
Severe turbulence
LIMM SIGMET 9 VALID 231305/231505 LIIP
LIMM MILANO FIR SEV TURB FCST WI N4614 E01005 - N4435 E01121 - N4326 E01313 - N4330 E01429 - N4429 E01319 - N4517 E01258 - N4535 E01354 - N4633 E01337 - N4706 E01209 - N4650 E01026 - N4634 E01004 - N4614 E01005 ABV FL220 MOV E NC=
Severe turbulence
LIMM SIGMET 8 VALID 231315/231515 LIIP
LIMM MILANO FIR SEV TURB OBS W OF LINE N4624 E00923 - N4335 E00812 ABV FL100 STNR NC=



MET'MAP, your aeronautical weather chart ! - Copyright ORBIFLY December 2007 - Disclaimer

ORBIFLY MET'MAP TEAM :

Programming & Development : Alexandra Zaïnal
Concept & Development : Baudouin d'Aumeries
Co-Development & Prog : Marc-Olivier Méhu
Technical & hardware support : Manuel Goepfert

Contact : metmap@orbifly.com




SOURCES & CREDITS :

   NOAA